Decoded Metar for UMMS (MINSK 2 in BELARUS) (IATA:MSQ) | Meteo·Mobile Aviation Weather
aviador You're here:

UMMS Decoded Metar

MINSK 2 in BELARUS
Report Time2018-12-19 15:00:00
UTC Time2018-12-19 15:18:36
Flight Rules ifr IFR
Wind130° at 8 kt
W.Decomp.*RWY 13: 7.9 kt HW 1.1 kt LCW
W.Rank130° ranks 7
Current wind is above 130° avg. (7.0)
Visibility7000 m
Phenomena:N/A
Clouds:Overcast 007 Hf
Expected CloudBase > 400 ft AGL from Temp-Dew spread
Ceiling700 ft
Temp-6°C (ISA -20)
Dew Point-7°C (93% RH)
AAT-11.7°C
QNH1032 hPa
Density Alt-2,356 ft
Elevation673 ft
Report Wrong Elevation
Raw Report
METAR UMMS 191500Z 13004MPS 7000 OVC007 M06/M07 Q1032 R13/820338 NOSIG=

Extra information for UMMS:More info

Metar Taf Metar & Taf Last 4 Metars F.Rules Stats Wind Profile Meteogram Temp Stats Airport Information Weather charts Add Link Nearby VenuesMetar ALERT Operation Metar Decoded Social comments